createdAt,value
2022-10-14T00:01:23.147Z,29.50
2022-10-14T00:03:53.111Z,33.57
2022-10-14T00:06:25.523Z,37.30
2022-10-14T00:08:53.629Z,34.80
2022-10-14T00:11:28.633Z,29.70
2022-10-14T00:13:59.275Z,28.42
2022-10-14T00:16:33.851Z,22.02
2022-10-14T00:19:03.110Z,27.27
2022-10-14T00:21:32.149Z,22.90
2022-10-14T00:24:00.220Z,26.05
2022-10-14T00:26:34.672Z,24.75
2022-10-14T00:29:05.366Z,24.67
2022-10-14T00:31:35.500Z,23.75
2022-10-14T00:34:04.440Z,25.45
2022-10-14T00:36:34.661Z,25.48
2022-10-14T00:39:03.036Z,22.95
2022-10-14T00:41:35.031Z,26.70
2022-10-14T00:44:06.139Z,27.23
2022-10-14T00:46:41.961Z,27.77
2022-10-14T00:49:15.034Z,33.22
2022-10-14T00:51:49.435Z,34.53
2022-10-14T00:54:20.202Z,29.20
2022-10-14T00:56:48.955Z,42.90
2022-10-14T00:59:17.562Z,34.20
2022-10-14T01:01:46.777Z,35.72
2022-10-14T01:04:15.082Z,33.85
2022-10-14T01:07:10.392Z,28.98
2022-10-14T01:09:49.057Z,30.10
2022-10-14T01:12:29.937Z,28.13
2022-10-14T01:15:05.171Z,26.98
2022-10-14T01:17:42.376Z,22.75
2022-10-14T01:20:32.140Z,24.48
2022-10-14T01:23:43.254Z,22.73
2022-10-14T01:26:38.567Z,29.08
2022-10-14T01:29:07.560Z,27.23
2022-10-14T01:31:40.404Z,29.77
2022-10-14T01:34:13.255Z,26.75
2022-10-14T01:36:57.649Z,30.98
2022-10-14T01:39:31.662Z,26.15
2022-10-14T01:42:18.435Z,29.77
2022-10-14T01:44:52.555Z,26.83
2022-10-14T01:47:21.768Z,25.30
2022-10-14T01:49:57.900Z,28.42
2022-10-14T01:52:32.806Z,24.23
2022-10-14T01:55:06.522Z,23.23
2022-10-14T01:57:37.944Z,27.52
2022-10-14T02:00:09.206Z,22.70
2022-10-14T02:02:44.486Z,26.02
2022-10-14T02:05:37.081Z,25.42
2022-10-14T02:08:23.461Z,25.63
2022-10-14T02:11:10.025Z,23.58
2022-10-14T02:14:05.256Z,26.10
2022-10-14T02:16:41.650Z,25.33
2022-10-14T02:19:31.813Z,22.38
2022-10-14T02:22:29.937Z,21.15
2022-10-14T02:25:24.012Z,21.33
2022-10-14T02:27:54.090Z,20.98
2022-10-14T02:30:22.763Z,22.48
2022-10-14T02:33:00.756Z,19.70
2022-10-14T02:35:31.592Z,22.67
2022-10-14T02:38:01.313Z,20.85
2022-10-14T02:40:36.512Z,19.70
2022-10-14T02:43:08.106Z,20.75
2022-10-14T02:45:37.970Z,22.13
2022-10-14T02:48:06.995Z,22.77
2022-10-14T02:50:35.494Z,21.33
2022-10-14T02:53:03.675Z,22.58
2022-10-14T02:55:32.111Z,21.00
2022-10-14T02:58:01.411Z,23.52
2022-10-14T03:00:29.652Z,22.65
2022-10-14T03:02:57.961Z,23.65
2022-10-14T03:05:28.189Z,22.45
2022-10-14T03:07:56.661Z,23.10
2022-10-14T03:10:27.782Z,23.08
2022-10-14T03:12:56.130Z,23.35
2022-10-14T03:15:30.479Z,25.58
2022-10-14T03:18:00.080Z,19.88
2022-10-14T03:20:37.879Z,21.70
2022-10-14T03:23:08.337Z,20.48
2022-10-14T03:25:39.581Z,18.27
2022-10-14T03:28:16.262Z,20.38
2022-10-14T03:31:13.325Z,22.55
2022-10-14T03:33:56.357Z,21.48
2022-10-14T03:36:26.056Z,20.45
2022-10-14T03:38:57.437Z,20.35
2022-10-14T03:41:44.179Z,25.90
2022-10-14T03:44:14.251Z,19.33
2022-10-14T03:46:48.920Z,18.95
2022-10-14T03:49:17.744Z,22.77
2022-10-14T03:51:46.286Z,22.50
2022-10-14T03:54:23.077Z,24.55
2022-10-14T03:56:51.695Z,21.42
2022-10-14T03:59:22.958Z,17.92
2022-10-14T04:01:54.286Z,21.00
2022-10-14T04:04:25.734Z,19.38
2022-10-14T04:06:54.532Z,21.77
2022-10-14T04:09:23.674Z,21.05
2022-10-14T04:11:51.736Z,23.63
2022-10-14T04:15:07.212Z,18.92
2022-10-14T04:17:48.586Z,21.17
2022-10-14T04:20:17.057Z,24.45
2022-10-14T04:22:45.686Z,19.20
2022-10-14T04:25:18.070Z,23.90
2022-10-14T04:27:53.709Z,20.70
2022-10-14T04:30:24.695Z,24.25
2022-10-14T04:32:56.197Z,21.02
2022-10-14T04:35:24.205Z,20.52
2022-10-14T04:37:57.998Z,19.48
2022-10-14T04:40:30.876Z,19.92
2022-10-14T04:43:00.446Z,17.20
2022-10-14T04:45:34.610Z,24.60
2022-10-14T04:48:04.883Z,22.08
2022-10-14T04:50:37.441Z,21.15
2022-10-14T04:53:23.730Z,19.67
2022-10-14T04:56:06.260Z,20.17
2022-10-14T04:58:39.517Z,20.92
2022-10-14T05:01:08.767Z,18.13
2022-10-14T05:03:40.762Z,17.95
2022-10-14T05:06:10.432Z,19.35
2022-10-14T05:08:43.863Z,18.08
2022-10-14T05:11:14.369Z,19.52
2022-10-14T05:13:48.935Z,18.83
2022-10-14T05:16:19.166Z,18.60
2022-10-14T05:18:47.631Z,19.25
2022-10-14T05:21:15.850Z,21.00
2022-10-14T05:24:01.831Z,17.83
2022-10-14T05:26:34.281Z,18.67
2022-10-14T05:29:07.227Z,20.48
2022-10-14T05:31:36.699Z,19.65
2022-10-14T05:34:23.034Z,17.95
2022-10-14T05:36:52.724Z,18.23
2022-10-14T05:39:22.818Z,17.15
2022-10-14T05:41:51.759Z,16.63
2022-10-14T05:44:24.938Z,16.10
2022-10-14T05:46:54.128Z,17.83
2022-10-14T05:49:23.046Z,17.05
2022-10-14T05:51:51.010Z,14.70
2022-10-14T05:54:23.766Z,15.70
2022-10-14T05:56:54.207Z,14.93
2022-10-14T05:59:23.349Z,11.75
2022-10-14T06:01:51.842Z,14.68
2022-10-14T06:04:21.398Z,12.50
2022-10-14T06:06:49.734Z,10.55
2022-10-14T06:09:18.993Z,11.65
2022-10-14T06:11:47.370Z,13.13
2022-10-14T06:14:41.733Z,11.35
2022-10-14T06:17:11.098Z,19.38
2022-10-14T06:19:39.160Z,9.35
2022-10-14T06:22:07.222Z,10.38
2022-10-14T06:24:36.177Z,10.48
2022-10-14T06:27:04.823Z,11.63
2022-10-14T06:29:38.075Z,11.70
2022-10-14T06:34:35.273Z,11.00
2022-10-14T06:37:04.232Z,12.20
2022-10-14T06:39:32.413Z,11.85
2022-10-14T06:42:03.290Z,12.02
2022-10-14T06:44:32.173Z,13.32
2022-10-14T06:47:00.623Z,10.52
2022-10-14T06:49:28.951Z,10.80
2022-10-14T06:51:56.959Z,12.45
2022-10-14T06:54:24.847Z,12.10
2022-10-14T06:56:53.503Z,9.75
2022-10-14T06:59:21.486Z,10.13
2022-10-14T07:01:49.466Z,11.95
2022-10-14T07:04:17.556Z,12.95
2022-10-14T07:06:45.689Z,11.07
2022-10-14T07:09:13.659Z,10.43
2022-10-14T07:11:42.949Z,12.02
2022-10-14T07:14:11.418Z,10.68
2022-10-14T07:16:42.919Z,10.68
2022-10-14T07:19:11.086Z,11.90
2022-10-14T07:21:39.189Z,10.43
2022-10-14T07:24:07.776Z,8.55
2022-10-14T07:26:36.380Z,10.18
2022-10-14T07:29:07.719Z,9.23
2022-10-14T07:31:37.273Z,9.17
2022-10-14T07:34:06.114Z,10.45
2022-10-14T07:36:34.141Z,8.45
2022-10-14T07:39:03.156Z,9.75
2022-10-14T07:41:31.528Z,9.05
2022-10-14T07:44:03.100Z,10.50
2022-10-14T07:46:33.404Z,8.63
2022-10-14T07:49:07.055Z,8.18
2022-10-14T07:51:35.785Z,9.95
2022-10-14T07:54:09.993Z,7.20
2022-10-14T07:56:40.372Z,9.52
2022-10-14T07:59:08.959Z,8.60
2022-10-14T08:01:38.095Z,9.98
2022-10-14T08:04:07.055Z,10.80
2022-10-14T08:06:35.002Z,9.18
2022-10-14T08:09:05.895Z,7.85
2022-10-14T08:11:34.355Z,10.40
2022-10-14T08:14:02.585Z,11.88
2022-10-14T08:16:33.816Z,10.60
2022-10-14T08:19:13.772Z,9.65
2022-10-14T08:21:43.722Z,9.80
2022-10-14T08:24:12.472Z,11.00
2022-10-14T08:26:50.272Z,9.30
2022-10-14T08:29:18.844Z,11.05
2022-10-14T08:31:47.129Z,11.27
2022-10-14T08:34:15.202Z,13.63
2022-10-14T08:36:43.643Z,10.38
2022-10-14T08:39:11.580Z,11.38
2022-10-14T08:42:17.136Z,9.73
2022-10-14T08:44:53.518Z,10.05
2022-10-14T08:47:35.971Z,10.25
2022-10-14T08:50:34.080Z,11.75
2022-10-14T08:53:12.269Z,11.43
2022-10-14T08:55:45.009Z,10.27
2022-10-14T08:58:18.441Z,9.95
2022-10-14T09:00:50.701Z,9.43
2022-10-14T09:03:33.254Z,9.88
2022-10-14T09:06:05.242Z,11.02
2022-10-14T09:08:38.548Z,10.10
2022-10-14T09:11:13.427Z,8.23
2022-10-14T09:13:45.720Z,7.72
2022-10-14T09:18:54.798Z,9.15
2022-10-14T09:21:51.733Z,7.25
2022-10-14T09:24:35.691Z,7.80
2022-10-14T09:27:07.488Z,8.02
2022-10-14T09:29:46.403Z,7.18
2022-10-14T09:32:35.783Z,8.00
2022-10-14T09:35:04.670Z,7.90
2022-10-14T09:37:36.222Z,6.85
2022-10-14T09:40:26.325Z,7.25
2022-10-14T09:43:20.942Z,8.40
2022-10-14T09:46:07.358Z,8.65
2022-10-14T09:48:51.303Z,9.88
2022-10-14T09:51:29.643Z,9.05
2022-10-14T09:54:00.224Z,10.20
2022-10-14T09:56:41.653Z,8.07
2022-10-14T09:59:22.970Z,8.15
2022-10-14T10:02:17.718Z,10.85
2022-10-14T10:04:47.716Z,9.27
2022-10-14T10:07:30.270Z,8.77
2022-10-14T10:10:16.376Z,8.40
2022-10-14T10:12:47.231Z,8.77
2022-10-14T10:15:21.454Z,8.82
2022-10-14T10:17:50.717Z,7.40
2022-10-14T10:20:24.016Z,7.43
2022-10-14T10:22:52.436Z,7.60
2022-10-14T10:25:26.942Z,8.43
2022-10-14T10:27:58.772Z,7.30
2022-10-14T10:30:28.853Z,7.65
2022-10-14T10:33:00.379Z,8.93
2022-10-14T10:35:53.922Z,11.07
2022-10-14T10:38:37.502Z,7.15
2022-10-14T10:41:26.951Z,8.27
2022-10-14T10:44:02.472Z,9.90
2022-10-14T10:46:33.895Z,7.47
2022-10-14T10:49:40.732Z,8.32
2022-10-14T10:52:37.084Z,7.15
2022-10-14T10:55:29.959Z,6.28
2022-10-14T10:58:34.526Z,7.32
2022-10-14T11:01:26.376Z,7.82
2022-10-14T11:04:03.590Z,6.65
2022-10-14T11:06:50.223Z,8.02
2022-10-14T11:09:59.064Z,8.63
2022-10-14T11:12:38.663Z,8.27
2022-10-14T11:15:26.682Z,9.13
2022-10-14T11:17:58.671Z,7.20
2022-10-14T11:20:48.046Z,8.98
2022-10-14T11:23:59.707Z,7.18
2022-10-14T11:26:53.664Z,8.02
2022-10-14T11:29:35.479Z,7.93
2022-10-14T11:32:20.045Z,7.93
2022-10-14T11:35:12.974Z,7.72
2022-10-14T11:37:52.497Z,8.10
2022-10-14T11:40:38.061Z,10.20
2022-10-14T11:43:15.107Z,8.35
2022-10-14T11:46:06.433Z,9.57
2022-10-14T11:48:47.985Z,11.02
2022-10-14T11:51:51.559Z,10.82
2022-10-14T11:57:22.842Z,12.63
2022-10-14T12:00:01.754Z,8.27
2022-10-14T12:03:03.963Z,9.32
2022-10-14T12:05:47.595Z,8.60
2022-10-14T12:08:33.167Z,7.82
2022-10-14T12:11:15.287Z,8.40
2022-10-14T12:13:47.605Z,7.50
2022-10-14T12:16:23.779Z,7.60
2022-10-14T12:18:56.324Z,6.43
2022-10-14T12:21:30.285Z,7.38
2022-10-14T12:24:15.048Z,9.95
2022-10-14T12:26:57.559Z,8.43
2022-10-14T12:29:32.677Z,8.55
2022-10-14T12:32:03.946Z,9.35
2022-10-14T12:34:40.257Z,7.10
2022-10-14T12:37:38.165Z,8.10
2022-10-14T12:40:15.390Z,6.80
2022-10-14T12:42:44.113Z,9.82
2022-10-14T12:45:21.454Z,10.65
2022-10-14T12:48:05.252Z,8.43
2022-10-14T12:50:38.800Z,7.63
2022-10-14T12:53:17.162Z,7.57
2022-10-14T12:56:05.731Z,6.45
2022-10-14T12:58:41.444Z,7.40
2022-10-14T13:01:22.487Z,8.57
2022-10-14T13:04:07.493Z,7.72
2022-10-14T13:06:43.014Z,9.57
2022-10-14T13:09:15.410Z,7.63
2022-10-14T13:11:53.239Z,8.65
2022-10-14T13:14:24.144Z,8.38
2022-10-14T13:16:52.684Z,7.75
2022-10-14T13:19:32.944Z,8.55
2022-10-14T13:22:06.066Z,8.30
2022-10-14T13:24:41.925Z,7.13
2022-10-14T13:27:30.184Z,7.97
2022-10-14T13:30:33.880Z,6.90
2022-10-14T13:33:21.483Z,9.90
2022-10-14T13:36:06.035Z,8.20
2022-10-14T13:38:36.157Z,8.73
2022-10-14T13:41:05.338Z,9.05
2022-10-14T13:43:42.762Z,8.25
2022-10-14T13:46:16.568Z,7.60
2022-10-14T13:48:48.680Z,7.55
2022-10-14T13:51:24.507Z,8.25
2022-10-14T13:54:27.204Z,7.90
2022-10-14T13:57:35.027Z,9.88
2022-10-14T14:02:44.270Z,8.50
2022-10-14T14:05:19.997Z,8.48
2022-10-14T14:11:03.773Z,8.13
2022-10-14T14:13:37.489Z,7.80
2022-10-14T14:16:06.134Z,9.85
2022-10-14T14:18:56.148Z,7.90
2022-10-14T14:21:29.861Z,14.77
2022-10-14T14:24:00.370Z,9.38
2022-10-14T14:26:35.842Z,7.22
2022-10-14T14:29:14.813Z,9.27
2022-10-14T14:34:37.094Z,7.38
2022-10-14T14:40:00.035Z,8.50
2022-10-14T14:42:36.199Z,7.40
2022-10-14T14:45:12.649Z,9.25
2022-10-14T14:47:42.514Z,8.95
2022-10-14T14:50:30.025Z,9.93
2022-10-14T14:53:05.463Z,9.25
2022-10-14T14:55:58.278Z,7.57
2022-10-14T14:58:38.341Z,7.13
2022-10-14T15:01:21.347Z,11.00
2022-10-14T15:04:13.647Z,7.70
2022-10-14T15:06:52.515Z,10.18
2022-10-14T15:09:26.954Z,10.63
2022-10-14T15:11:58.029Z,10.93
2022-10-14T15:14:48.016Z,9.45
2022-10-14T15:17:29.017Z,10.02
2022-10-14T15:22:40.051Z,10.77
2022-10-14T15:25:29.420Z,8.95
2022-10-14T15:28:00.146Z,10.80
2022-10-14T15:30:40.201Z,10.82
2022-10-14T15:33:19.315Z,10.82
2022-10-14T15:36:06.165Z,10.50
2022-10-14T15:38:34.351Z,9.90
2022-10-14T15:41:04.440Z,15.18
2022-10-14T15:43:34.772Z,12.63
2022-10-14T15:46:22.008Z,10.50
2022-10-14T15:48:53.802Z,8.93
2022-10-14T15:51:26.382Z,11.13
2022-10-14T15:53:54.533Z,11.07
2022-10-14T15:56:22.645Z,11.02
2022-10-14T15:58:50.737Z,11.63
2022-10-14T16:01:23.371Z,11.82
2022-10-14T16:03:58.167Z,12.57
2022-10-14T16:06:29.464Z,13.02
2022-10-14T16:08:58.646Z,26.38
2022-10-14T16:11:29.216Z,28.65
2022-10-14T16:13:58.260Z,24.10
2022-10-14T16:16:33.170Z,15.98
2022-10-14T16:19:05.062Z,20.70
2022-10-14T16:21:33.767Z,25.40
2022-10-14T16:24:04.657Z,20.02
2022-10-14T16:26:33.222Z,15.57
2022-10-14T16:29:03.929Z,24.08
2022-10-14T16:31:32.539Z,22.98
2022-10-14T16:34:01.942Z,23.42
2022-10-14T16:36:30.317Z,19.75
2022-10-14T16:39:01.948Z,18.73
2022-10-14T16:41:31.191Z,12.00
2022-10-14T16:43:59.150Z,15.38
2022-10-14T16:46:47.293Z,13.25
2022-10-14T16:49:16.046Z,18.33
2022-10-14T16:51:45.311Z,18.50
2022-10-14T16:54:13.608Z,20.13
2022-10-14T16:56:54.369Z,18.05
2022-10-14T16:59:24.403Z,16.52
2022-10-14T17:01:52.996Z,18.10
2022-10-14T17:04:21.242Z,19.88
2022-10-14T17:06:55.089Z,19.20
2022-10-14T17:11:55.554Z,17.38
2022-10-14T17:14:24.375Z,20.13
2022-10-14T17:16:52.998Z,20.00
2022-10-14T17:19:21.049Z,17.63
2022-10-14T17:21:49.498Z,17.25
2022-10-14T17:24:18.504Z,16.10
2022-10-14T17:26:47.242Z,13.32
2022-10-14T17:29:15.802Z,15.38
2022-10-14T17:31:45.374Z,18.02
2022-10-14T17:34:14.056Z,16.38
2022-10-14T17:36:42.420Z,18.90
2022-10-14T17:39:21.303Z,19.00
2022-10-14T17:41:55.470Z,17.60
2022-10-14T17:44:24.703Z,17.45
2022-10-14T17:46:54.306Z,17.35
2022-10-14T17:49:22.690Z,19.45
2022-10-14T17:51:50.619Z,19.33
2022-10-14T17:54:19.479Z,17.42
2022-10-14T17:56:48.361Z,17.60
2022-10-14T17:59:16.939Z,20.60
2022-10-14T18:04:33.672Z,21.75
2022-10-14T18:07:02.198Z,23.77
2022-10-14T18:09:30.676Z,25.30
2022-10-14T18:12:14.263Z,19.90
2022-10-14T18:17:12.617Z,25.95
2022-10-14T18:19:42.311Z,24.38
2022-10-14T18:22:11.646Z,19.35
2022-10-14T18:24:40.066Z,22.23
2022-10-14T18:27:08.362Z,19.25
2022-10-14T18:29:36.396Z,25.73
2022-10-14T18:32:06.439Z,34.63
2022-10-14T18:34:34.515Z,53.05
2022-10-14T18:37:02.858Z,54.25
2022-10-14T18:39:31.414Z,58.45
2022-10-14T18:41:59.476Z,47.42
2022-10-14T18:44:28.046Z,41.70
2022-10-14T18:46:56.993Z,34.25
2022-10-14T18:49:25.517Z,35.10
2022-10-14T18:51:55.417Z,30.55
2022-10-14T18:54:25.033Z,30.85
2022-10-14T18:56:54.971Z,26.60
2022-10-14T18:59:24.380Z,26.95
2022-10-14T19:01:53.627Z,26.58
2022-10-14T19:04:24.466Z,27.50
2022-10-14T19:06:53.196Z,24.92
2022-10-14T19:09:24.681Z,25.17
2022-10-14T19:11:53.407Z,23.42
2022-10-14T19:14:22.621Z,20.95
2022-10-14T19:16:53.964Z,21.27
2022-10-14T19:19:22.172Z,19.27
2022-10-14T19:21:54.546Z,20.85
2022-10-14T19:24:22.833Z,18.67
2022-10-14T19:26:50.829Z,22.50
2022-10-14T19:29:18.972Z,20.02
2022-10-14T19:31:50.996Z,21.10
2022-10-14T19:34:20.003Z,20.92
2022-10-14T19:36:47.986Z,18.48
2022-10-14T19:39:16.975Z,20.95
2022-10-14T19:41:46.664Z,21.20
2022-10-14T19:44:16.486Z,20.02
2022-10-14T19:46:47.708Z,21.80
2022-10-14T19:49:17.211Z,23.27
2022-10-14T19:51:47.168Z,20.48
2022-10-14T19:54:15.348Z,24.25
2022-10-14T19:56:43.979Z,23.60
2022-10-14T19:59:13.633Z,21.88
2022-10-14T20:01:42.477Z,19.05
2022-10-14T20:04:11.345Z,19.73
2022-10-14T20:06:40.669Z,23.23
2022-10-14T20:09:11.250Z,21.02
2022-10-14T20:11:39.632Z,18.92
2022-10-14T20:14:07.699Z,20.23
2022-10-14T20:16:36.264Z,19.92
2022-10-14T20:19:05.175Z,19.52
2022-10-14T20:21:33.921Z,17.23
2022-10-14T20:24:02.380Z,18.20
2022-10-14T20:26:31.129Z,21.25
2022-10-14T20:29:00.265Z,19.23
2022-10-14T20:31:28.923Z,17.75
2022-10-14T20:33:57.556Z,21.63
2022-10-14T20:36:25.979Z,20.45
2022-10-14T20:38:54.193Z,19.52
2022-10-14T20:41:25.182Z,17.38
2022-10-14T20:43:55.236Z,19.58
2022-10-14T20:46:24.771Z,17.58
2022-10-14T20:48:55.361Z,19.92
2022-10-14T20:51:23.797Z,17.95
2022-10-14T20:54:01.607Z,21.50
2022-10-14T20:56:34.404Z,28.80
2022-10-14T20:59:06.178Z,20.52
2022-10-14T21:01:36.851Z,23.10
2022-10-14T21:04:08.218Z,22.88
2022-10-14T21:06:39.084Z,21.30
2022-10-14T21:09:07.926Z,18.58
2022-10-14T21:11:36.355Z,19.75
2022-10-14T21:14:04.593Z,20.42
2022-10-14T21:16:35.683Z,21.08
2022-10-14T21:19:07.599Z,19.13
2022-10-14T21:21:41.726Z,19.10
2022-10-14T21:24:13.591Z,16.88
2022-10-14T21:26:42.128Z,22.02
2022-10-14T21:29:10.479Z,20.35
2022-10-14T21:31:39.227Z,22.92
2022-10-14T21:34:07.965Z,22.50
2022-10-14T21:36:37.445Z,23.20
2022-10-14T21:39:08.388Z,23.02
2022-10-14T21:41:37.747Z,22.60
2022-10-14T21:44:07.670Z,22.10
2022-10-14T21:46:36.715Z,20.27
2022-10-14T21:49:04.918Z,21.52
2022-10-14T21:51:33.344Z,20.52
2022-10-14T21:54:01.586Z,17.77
2022-10-14T21:56:30.035Z,17.38
2022-10-14T21:58:58.676Z,18.73
2022-10-14T22:01:28.995Z,17.00
2022-10-14T22:03:58.439Z,18.90
2022-10-14T22:06:27.755Z,16.33
2022-10-14T22:08:58.506Z,18.70
2022-10-14T22:11:40.497Z,15.93
2022-10-14T22:14:12.752Z,18.30
2022-10-14T22:16:40.980Z,18.15
2022-10-14T22:19:11.025Z,17.88
2022-10-14T22:21:40.892Z,15.73
2022-10-14T22:24:10.605Z,18.73
2022-10-14T22:26:40.529Z,19.35
2022-10-14T22:29:16.933Z,16.98
2022-10-14T22:31:46.139Z,21.15
2022-10-14T22:34:16.729Z,18.65
2022-10-14T22:36:45.550Z,18.65
2022-10-14T22:39:15.601Z,15.75
2022-10-14T22:41:43.589Z,18.40
2022-10-14T22:44:37.251Z,19.88
2022-10-14T22:47:05.533Z,17.23
2022-10-14T22:49:33.600Z,15.88
2022-10-14T22:52:01.621Z,17.85
2022-10-14T22:54:30.081Z,19.95
2022-10-14T22:56:58.621Z,16.77
2022-10-14T22:59:26.771Z,16.20
2022-10-14T23:01:55.532Z,14.60
2022-10-14T23:04:24.035Z,16.00
2022-10-14T23:06:52.294Z,16.05
2022-10-14T23:09:20.235Z,18.50
2022-10-14T23:11:48.134Z,15.85
2022-10-14T23:14:16.625Z,16.23
2022-10-14T23:16:44.617Z,15.75
2022-10-14T23:19:12.761Z,15.70
2022-10-14T23:21:41.786Z,16.45
2022-10-14T23:24:11.964Z,16.55
2022-10-14T23:26:40.293Z,16.40
2022-10-14T23:29:11.578Z,17.75
2022-10-14T23:31:40.773Z,14.57
2022-10-14T23:34:12.907Z,16.65
2022-10-14T23:36:41.685Z,15.18
2022-10-14T23:39:11.081Z,17.30
2022-10-14T23:41:39.290Z,18.08
2022-10-14T23:44:07.358Z,16.77
2022-10-14T23:46:35.405Z,16.33
2022-10-14T23:49:21.200Z,16.73
2022-10-14T23:51:52.249Z,17.65
2022-10-14T23:54:20.407Z,17.02
2022-10-14T23:56:48.613Z,16.15
2022-10-14T23:59:17.363Z,16.95
